sensor_id;sensor_type;location;lat;lon;timestamp;P1;durP1;ratioP1;P2;durP2;ratioP2
43819;SDS011;67762;52.476;6.046;2023-06-10T00:02:07;54.58;;;50.90;;
43819;SDS011;67762;52.476;6.046;2023-06-10T00:04:33;50.17;;;46.80;;
43819;SDS011;67762;52.476;6.046;2023-06-10T00:07:02;55.03;;;51.53;;
43819;SDS011;67762;52.476;6.046;2023-06-10T00:09:29;54.63;;;51.33;;
43819;SDS011;67762;52.476;6.046;2023-06-10T00:11:55;48.90;;;46.00;;
43819;SDS011;67762;52.476;6.046;2023-06-10T00:14:20;60.45;;;56.60;;
43819;SDS011;67762;52.476;6.046;2023-06-10T00:16:46;61.65;;;58.08;;
43819;SDS011;67762;52.476;6.046;2023-06-10T00:19:11;52.97;;;49.55;;
43819;SDS011;67762;52.476;6.046;2023-06-10T00:21:39;59.83;;;56.20;;
43819;SDS011;67762;52.476;6.046;2023-06-10T00:24:10;61.58;;;57.83;;
43819;SDS011;67762;52.476;6.046;2023-06-10T00:26:40;51.50;;;48.10;;
43819;SDS011;67762;52.476;6.046;2023-06-10T00:29:06;50.08;;;46.90;;
43819;SDS011;67762;52.476;6.046;2023-06-10T00:31:36;52.70;;;49.45;;
43819;SDS011;67762;52.476;6.046;2023-06-10T00:34:06;52.45;;;49.17;;
43819;SDS011;67762;52.476;6.046;2023-06-10T00:36:32;49.42;;;46.40;;
43819;SDS011;67762;52.476;6.046;2023-06-10T00:38:58;51.45;;;48.35;;
43819;SDS011;67762;52.476;6.046;2023-06-10T00:41:24;50.75;;;47.20;;
43819;SDS011;67762;52.476;6.046;2023-06-10T00:43:51;55.72;;;51.97;;
43819;SDS011;67762;52.476;6.046;2023-06-10T00:46:17;80.28;;;75.75;;
43819;SDS011;67762;52.476;6.046;2023-06-10T00:48:44;66.05;;;61.47;;
43819;SDS011;67762;52.476;6.046;2023-06-10T00:51:10;59.22;;;55.70;;
43819;SDS011;67762;52.476;6.046;2023-06-10T00:53:39;56.13;;;52.65;;
43819;SDS011;67762;52.476;6.046;2023-06-10T00:56:07;66.97;;;62.97;;
43819;SDS011;67762;52.476;6.046;2023-06-10T00:58:34;58.05;;;54.30;;
43819;SDS011;67762;52.476;6.046;2023-06-10T01:01:01;52.30;;;49.05;;
43819;SDS011;67762;52.476;6.046;2023-06-10T01:03:27;54.85;;;51.28;;
43819;SDS011;67762;52.476;6.046;2023-06-10T01:06:01;54.08;;;50.53;;
43819;SDS011;67762;52.476;6.046;2023-06-10T01:08:40;56.53;;;52.72;;
43819;SDS011;67762;52.476;6.046;2023-06-10T01:11:17;51.83;;;48.67;;
43819;SDS011;67762;52.476;6.046;2023-06-10T01:13:49;59.60;;;55.90;;
43819;SDS011;67762;52.476;6.046;2023-06-10T01:16:17;63.10;;;59.22;;
43819;SDS011;67762;52.476;6.046;2023-06-10T01:18:44;52.25;;;48.80;;
43819;SDS011;67762;52.476;6.046;2023-06-10T01:21:28;59.30;;;55.65;;
43819;SDS011;67762;52.476;6.046;2023-06-10T01:23:54;57.07;;;53.40;;
43819;SDS011;67762;52.476;6.046;2023-06-10T01:26:22;53.35;;;49.70;;
43819;SDS011;67762;52.476;6.046;2023-06-10T01:29:17;52.63;;;49.10;;
43819;SDS011;67762;52.476;6.046;2023-06-10T01:34:39;63.72;;;60.00;;
43819;SDS011;67762;52.476;6.046;2023-06-10T01:37:07;64.25;;;60.38;;
43819;SDS011;67762;52.476;6.046;2023-06-10T01:39:38;60.60;;;56.70;;
43819;SDS011;67762;52.476;6.046;2023-06-10T01:42:05;53.60;;;50.10;;
43819;SDS011;67762;52.476;6.046;2023-06-10T01:44:31;67.88;;;63.95;;
43819;SDS011;67762;52.476;6.046;2023-06-10T01:46:57;51.35;;;48.35;;
43819;SDS011;67762;52.476;6.046;2023-06-10T01:49:23;53.22;;;49.92;;
43819;SDS011;67762;52.476;6.046;2023-06-10T01:51:49;60.30;;;56.80;;
43819;SDS011;67762;52.476;6.046;2023-06-10T01:54:15;56.42;;;53.05;;
43819;SDS011;67762;52.476;6.046;2023-06-10T01:56:41;56.80;;;52.97;;
43819;SDS011;67762;52.476;6.046;2023-06-10T01:59:07;51.17;;;47.40;;
43819;SDS011;67762;52.476;6.046;2023-06-10T02:01:32;53.47;;;49.78;;
43819;SDS011;67762;52.476;6.046;2023-06-10T02:03:58;47.95;;;44.85;;
43819;SDS011;67762;52.476;6.046;2023-06-10T02:06:24;49.88;;;46.67;;
43819;SDS011;67762;52.476;6.046;2023-06-10T02:08:50;57.50;;;53.90;;
43819;SDS011;67762;52.476;6.046;2023-06-10T02:11:15;71.65;;;66.45;;
43819;SDS011;67762;52.476;6.046;2023-06-10T02:13:41;57.50;;;53.83;;
43819;SDS011;67762;52.476;6.046;2023-06-10T02:16:06;65.07;;;60.72;;
43819;SDS011;67762;52.476;6.046;2023-06-10T02:18:32;60.60;;;56.70;;
43819;SDS011;67762;52.476;6.046;2023-06-10T02:20:58;63.83;;;60.17;;
43819;SDS011;67762;52.476;6.046;2023-06-10T02:23:25;62.92;;;59.00;;
43819;SDS011;67762;52.476;6.046;2023-06-10T02:25:51;62.17;;;58.17;;
43819;SDS011;67762;52.476;6.046;2023-06-10T02:28:17;117.55;;;110.43;;
43819;SDS011;67762;52.476;6.046;2023-06-10T02:30:42;73.55;;;69.10;;
43819;SDS011;67762;52.476;6.046;2023-06-10T02:33:08;71.55;;;67.25;;
43819;SDS011;67762;52.476;6.046;2023-06-10T02:35:37;67.50;;;63.30;;
43819;SDS011;67762;52.476;6.046;2023-06-10T02:38:04;102.22;;;96.18;;
43819;SDS011;67762;52.476;6.046;2023-06-10T02:40:31;79.13;;;74.22;;
43819;SDS011;67762;52.476;6.046;2023-06-10T02:42:57;103.95;;;97.70;;
43819;SDS011;67762;52.476;6.046;2023-06-10T02:45:24;75.18;;;70.80;;
43819;SDS011;67762;52.476;6.046;2023-06-10T02:47:51;83.60;;;78.82;;
43819;SDS011;67762;52.476;6.046;2023-06-10T02:50:16;78.05;;;73.05;;
43819;SDS011;67762;52.476;6.046;2023-06-10T02:52:52;81.00;;;76.28;;
43819;SDS011;67762;52.476;6.046;2023-06-10T02:55:18;97.70;;;91.82;;
43819;SDS011;67762;52.476;6.046;2023-06-10T02:57:49;114.30;;;107.68;;
43819;SDS011;67762;52.476;6.046;2023-06-10T03:00:16;139.15;;;131.55;;
43819;SDS011;67762;52.476;6.046;2023-06-10T03:02:42;100.38;;;94.63;;
43819;SDS011;67762;52.476;6.046;2023-06-10T03:05:11;140.95;;;132.88;;
43819;SDS011;67762;52.476;6.046;2023-06-10T03:07:41;162.82;;;153.88;;
43819;SDS011;67762;52.476;6.046;2023-06-10T03:10:06;191.10;;;180.35;;
43819;SDS011;67762;52.476;6.046;2023-06-10T03:12:34;172.10;;;162.70;;
43819;SDS011;67762;52.476;6.046;2023-06-10T03:14:59;160.18;;;151.65;;
43819;SDS011;67762;52.476;6.046;2023-06-10T03:17:27;1999.90;;;999.90;;
43819;SDS011;67762;52.476;6.046;2023-06-10T03:19:53;640.83;;;383.50;;
43819;SDS011;67762;52.476;6.046;2023-06-10T03:22:19;170.93;;;161.55;;
43819;SDS011;67762;52.476;6.046;2023-06-10T03:24:57;1125.00;;;617.83;;
43819;SDS011;67762;52.476;6.046;2023-06-10T03:27:25;668.40;;;409.63;;
43819;SDS011;67762;52.476;6.046;2023-06-10T03:29:54;640.05;;;382.05;;
43819;SDS011;67762;52.476;6.046;2023-06-10T03:32:21;1999.90;;;999.90;;
43819;SDS011;67762;52.476;6.046;2023-06-10T03:34:46;1999.90;;;999.90;;
43819;SDS011;67762;52.476;6.046;2023-06-10T03:37:13;230.40;;;217.27;;
43819;SDS011;67762;52.476;6.046;2023-06-10T03:39:41;1999.90;;;999.90;;
43819;SDS011;67762;52.476;6.046;2023-06-10T03:42:07;1999.90;;;999.90;;
43819;SDS011;67762;52.476;6.046;2023-06-10T03:44:33;1112.22;;;606.25;;
43819;SDS011;67762;52.476;6.046;2023-06-10T03:46:59;702.55;;;440.27;;
43819;SDS011;67762;52.476;6.046;2023-06-10T03:49:25;1999.90;;;999.90;;
43819;SDS011;67762;52.476;6.046;2023-06-10T03:51:55;1999.90;;;999.90;;
43819;SDS011;67762;52.476;6.046;2023-06-10T03:54:21;1999.90;;;999.90;;
43819;SDS011;67762;52.476;6.046;2023-06-10T03:56:47;1127.72;;;620.60;;
43819;SDS011;67762;52.476;6.046;2023-06-10T03:59:13;1999.90;;;999.90;;
43819;SDS011;67762;52.476;6.046;2023-06-10T04:01:39;1999.90;;;999.90;;
43819;SDS011;67762;52.476;6.046;2023-06-10T04:04:06;1200.93;;;688.53;;
43819;SDS011;67762;52.476;6.046;2023-06-10T04:06:33;1999.90;;;999.90;;
43819;SDS011;67762;52.476;6.046;2023-06-10T04:08:59;1999.90;;;999.90;;
43819;SDS011;67762;52.476;6.046;2023-06-10T04:11:26;1999.90;;;999.90;;
43819;SDS011;67762;52.476;6.046;2023-06-10T04:13:52;317.92;;;298.63;;
43819;SDS011;67762;52.476;6.046;2023-06-10T04:16:18;1999.90;;;999.90;;
43819;SDS011;67762;52.476;6.046;2023-06-10T04:18:45;249.13;;;235.45;;
43819;SDS011;67762;52.476;6.046;2023-06-10T04:21:11;1100.78;;;595.42;;
43819;SDS011;67762;52.476;6.046;2023-06-10T04:23:37;649.20;;;391.33;;
43819;SDS011;67762;52.476;6.046;2023-06-10T04:26:04;731.55;;;468.38;;
43819;SDS011;67762;52.476;6.046;2023-06-10T04:28:31;210.75;;;199.77;;
43819;SDS011;67762;52.476;6.046;2023-06-10T04:30:58;631.05;;;374.25;;
43819;SDS011;67762;52.476;6.046;2023-06-10T04:33:23;158.50;;;149.90;;
43819;SDS011;67762;52.476;6.046;2023-06-10T04:35:50;394.58;;;370.48;;
43819;SDS011;67762;52.476;6.046;2023-06-10T04:38:18;154.77;;;146.43;;
43819;SDS011;67762;52.476;6.046;2023-06-10T04:40:44;233.13;;;220.02;;
43819;SDS011;67762;52.476;6.046;2023-06-10T04:43:12;215.23;;;204.15;;
43819;SDS011;67762;52.476;6.046;2023-06-10T04:45:38;184.50;;;174.32;;
43819;SDS011;67762;52.476;6.046;2023-06-10T04:48:05;190.18;;;180.27;;
43819;SDS011;67762;52.476;6.046;2023-06-10T04:50:31;173.68;;;163.82;;
43819;SDS011;67762;52.476;6.046;2023-06-10T04:52:58;169.57;;;160.65;;
43819;SDS011;67762;52.476;6.046;2023-06-10T04:55:24;185.45;;;175.43;;
43819;SDS011;67762;52.476;6.046;2023-06-10T04:57:50;173.38;;;163.93;;
43819;SDS011;67762;52.476;6.046;2023-06-10T05:00:16;235.15;;;218.23;;
43819;SDS011;67762;52.476;6.046;2023-06-10T05:02:42;175.50;;;165.73;;
43819;SDS011;67762;52.476;6.046;2023-06-10T05:05:08;177.50;;;168.15;;
43819;SDS011;67762;52.476;6.046;2023-06-10T05:07:34;226.85;;;214.50;;
43819;SDS011;67762;52.476;6.046;2023-06-10T05:09:59;123.78;;;117.00;;
43819;SDS011;67762;52.476;6.046;2023-06-10T05:12:25;186.32;;;175.63;;
43819;SDS011;67762;52.476;6.046;2023-06-10T05:14:51;117.45;;;111.10;;
43819;SDS011;67762;52.476;6.046;2023-06-10T05:17:17;240.85;;;225.75;;
43819;SDS011;67762;52.476;6.046;2023-06-10T05:19:42;184.60;;;173.75;;
43819;SDS011;67762;52.476;6.046;2023-06-10T05:22:08;120.47;;;113.85;;
43819;SDS011;67762;52.476;6.046;2023-06-10T05:24:34;99.75;;;93.88;;
43819;SDS011;67762;52.476;6.046;2023-06-10T05:27:00;131.45;;;124.03;;
43819;SDS011;67762;52.476;6.046;2023-06-10T05:29:26;84.72;;;79.85;;
43819;SDS011;67762;52.476;6.046;2023-06-10T05:31:52;78.07;;;73.53;;
43819;SDS011;67762;52.476;6.046;2023-06-10T05:34:17;73.95;;;69.68;;
43819;SDS011;67762;52.476;6.046;2023-06-10T05:36:43;95.95;;;90.18;;
43819;SDS011;67762;52.476;6.046;2023-06-10T05:39:09;69.53;;;65.50;;
43819;SDS011;67762;52.476;6.046;2023-06-10T05:41:35;94.75;;;89.13;;
43819;SDS011;67762;52.476;6.046;2023-06-10T05:44:01;130.10;;;122.32;;
43819;SDS011;67762;52.476;6.046;2023-06-10T05:46:27;133.02;;;125.20;;
43819;SDS011;67762;52.476;6.046;2023-06-10T05:48:52;72.68;;;68.25;;
43819;SDS011;67762;52.476;6.046;2023-06-10T05:51:18;72.68;;;68.38;;
43819;SDS011;67762;52.476;6.046;2023-06-10T05:53:44;93.53;;;87.97;;
43819;SDS011;67762;52.476;6.046;2023-06-10T05:56:12;83.60;;;78.97;;
43819;SDS011;67762;52.476;6.046;2023-06-10T05:58:38;61.65;;;57.60;;
43819;SDS011;67762;52.476;6.046;2023-06-10T06:01:04;66.32;;;62.20;;
43819;SDS011;67762;52.476;6.046;2023-06-10T06:03:29;110.38;;;102.65;;
43819;SDS011;67762;52.476;6.046;2023-06-10T06:05:55;75.65;;;71.07;;
43819;SDS011;67762;52.476;6.046;2023-06-10T06:08:21;95.95;;;90.07;;
43819;SDS011;67762;52.476;6.046;2023-06-10T06:10:46;73.32;;;69.05;;
43819;SDS011;67762;52.476;6.046;2023-06-10T06:13:15;70.40;;;66.25;;
43819;SDS011;67762;52.476;6.046;2023-06-10T06:15:41;60.63;;;56.92;;
43819;SDS011;67762;52.476;6.046;2023-06-10T06:18:06;57.92;;;54.20;;
43819;SDS011;67762;52.476;6.046;2023-06-10T06:20:32;87.38;;;82.45;;
43819;SDS011;67762;52.476;6.046;2023-06-10T06:22:57;58.78;;;55.17;;
43819;SDS011;67762;52.476;6.046;2023-06-10T06:25:23;56.20;;;52.78;;
43819;SDS011;67762;52.476;6.046;2023-06-10T06:27:49;61.42;;;57.55;;
43819;SDS011;67762;52.476;6.046;2023-06-10T06:30:14;62.25;;;57.75;;
43819;SDS011;67762;52.476;6.046;2023-06-10T06:32:40;57.40;;;53.88;;
43819;SDS011;67762;52.476;6.046;2023-06-10T06:35:06;77.82;;;72.97;;
43819;SDS011;67762;52.476;6.046;2023-06-10T06:37:33;77.30;;;72.60;;
43819;SDS011;67762;52.476;6.046;2023-06-10T06:40:25;56.65;;;53.15;;
43819;SDS011;67762;52.476;6.046;2023-06-10T06:42:51;61.88;;;58.08;;
43819;SDS011;67762;52.476;6.046;2023-06-10T06:45:35;51.00;;;47.58;;
43819;SDS011;67762;52.476;6.046;2023-06-10T06:48:00;43.15;;;40.40;;
43819;SDS011;67762;52.476;6.046;2023-06-10T06:50:26;76.50;;;71.88;;
43819;SDS011;67762;52.476;6.046;2023-06-10T06:52:52;113.95;;;107.05;;
43819;SDS011;67762;52.476;6.046;2023-06-10T06:55:17;80.05;;;75.20;;
43819;SDS011;67762;52.476;6.046;2023-06-10T06:57:43;48.80;;;45.30;;
43819;SDS011;67762;52.476;6.046;2023-06-10T07:00:09;84.82;;;79.95;;
43819;SDS011;67762;52.476;6.046;2023-06-10T07:02:35;63.63;;;59.70;;
43819;SDS011;67762;52.476;6.046;2023-06-10T07:05:01;59.58;;;56.03;;
43819;SDS011;67762;52.476;6.046;2023-06-10T07:07:27;78.60;;;74.00;;
43819;SDS011;67762;52.476;6.046;2023-06-10T07:09:52;47.67;;;44.50;;
43819;SDS011;67762;52.476;6.046;2023-06-10T07:12:18;71.95;;;67.65;;
43819;SDS011;67762;52.476;6.046;2023-06-10T07:14:44;50.58;;;47.28;;
43819;SDS011;67762;52.476;6.046;2023-06-10T07:17:09;75.65;;;71.07;;
43819;SDS011;67762;52.476;6.046;2023-06-10T07:19:35;54.70;;;50.83;;
43819;SDS011;67762;52.476;6.046;2023-06-10T07:22:01;84.53;;;79.60;;
43819;SDS011;67762;52.476;6.046;2023-06-10T07:24:26;67.53;;;63.15;;
43819;SDS011;67762;52.476;6.046;2023-06-10T07:26:52;56.92;;;53.25;;
43819;SDS011;67762;52.476;6.046;2023-06-10T07:29:18;51.17;;;47.83;;
43819;SDS011;67762;52.476;6.046;2023-06-10T07:31:43;90.95;;;85.45;;
43819;SDS011;67762;52.476;6.046;2023-06-10T07:34:09;51.88;;;48.58;;
43819;SDS011;67762;52.476;6.046;2023-06-10T07:36:35;63.42;;;59.60;;
43819;SDS011;67762;52.476;6.046;2023-06-10T07:39:01;46.88;;;43.83;;
43819;SDS011;67762;52.476;6.046;2023-06-10T07:41:27;43.72;;;40.63;;
43819;SDS011;67762;52.476;6.046;2023-06-10T07:43:53;51.47;;;48.13;;
43819;SDS011;67762;52.476;6.046;2023-06-10T07:46:22;44.35;;;41.30;;
43819;SDS011;67762;52.476;6.046;2023-06-10T07:48:48;48.22;;;45.22;;
43819;SDS011;67762;52.476;6.046;2023-06-10T07:51:15;64.32;;;59.92;;
43819;SDS011;67762;52.476;6.046;2023-06-10T07:53:41;44.75;;;41.90;;
43819;SDS011;67762;52.476;6.046;2023-06-10T07:56:07;37.67;;;35.08;;
43819;SDS011;67762;52.476;6.046;2023-06-10T07:58:32;76.95;;;71.68;;
43819;SDS011;67762;52.476;6.046;2023-06-10T08:00:58;63.40;;;59.47;;
43819;SDS011;67762;52.476;6.046;2023-06-10T08:03:24;37.33;;;34.53;;
43819;SDS011;67762;52.476;6.046;2023-06-10T08:05:49;54.55;;;50.60;;
43819;SDS011;67762;52.476;6.046;2023-06-10T08:08:15;67.95;;;63.80;;
43819;SDS011;67762;52.476;6.046;2023-06-10T08:10:40;47.88;;;44.42;;
43819;SDS011;67762;52.476;6.046;2023-06-10T08:13:07;44.08;;;41.25;;
43819;SDS011;67762;52.476;6.046;2023-06-10T08:15:33;37.38;;;34.78;;
43819;SDS011;67762;52.476;6.046;2023-06-10T08:17:59;33.72;;;31.52;;
43819;SDS011;67762;52.476;6.046;2023-06-10T08:20:25;49.58;;;46.55;;
43819;SDS011;67762;52.476;6.046;2023-06-10T08:22:51;34.97;;;32.67;;
43819;SDS011;67762;52.476;6.046;2023-06-10T08:25:16;39.05;;;36.55;;
43819;SDS011;67762;52.476;6.046;2023-06-10T08:27:42;49.80;;;46.58;;
43819;SDS011;67762;52.476;6.046;2023-06-10T08:30:08;35.58;;;33.03;;
43819;SDS011;67762;52.476;6.046;2023-06-10T08:32:36;38.42;;;35.35;;
43819;SDS011;67762;52.476;6.046;2023-06-10T08:35:02;44.63;;;41.63;;
43819;SDS011;67762;52.476;6.046;2023-06-10T08:37:28;34.35;;;31.85;;
43819;SDS011;67762;52.476;6.046;2023-06-10T08:39:54;57.53;;;53.25;;
43819;SDS011;67762;52.476;6.046;2023-06-10T08:42:24;34.60;;;32.22;;
43819;SDS011;67762;52.476;6.046;2023-06-10T08:44:54;32.45;;;29.98;;
43819;SDS011;67762;52.476;6.046;2023-06-10T08:47:22;32.42;;;29.95;;
43819;SDS011;67762;52.476;6.046;2023-06-10T08:49:49;34.55;;;32.08;;
43819;SDS011;67762;52.476;6.046;2023-06-10T08:52:16;43.47;;;40.70;;
43819;SDS011;67762;52.476;6.046;2023-06-10T08:54:54;40.05;;;37.38;;
43819;SDS011;67762;52.476;6.046;2023-06-10T08:57:22;39.63;;;37.22;;
43819;SDS011;67762;52.476;6.046;2023-06-10T08:59:48;28.67;;;26.77;;
43819;SDS011;67762;52.476;6.046;2023-06-10T09:02:15;30.55;;;28.60;;
43819;SDS011;67762;52.476;6.046;2023-06-10T09:04:43;32.25;;;30.10;;
43819;SDS011;67762;52.476;6.046;2023-06-10T09:07:10;49.72;;;46.30;;
43819;SDS011;67762;52.476;6.046;2023-06-10T09:09:36;36.45;;;34.05;;
43819;SDS011;67762;52.476;6.046;2023-06-10T09:12:02;28.85;;;26.95;;
43819;SDS011;67762;52.476;6.046;2023-06-10T09:14:28;27.13;;;25.30;;
43819;SDS011;67762;52.476;6.046;2023-06-10T09:16:55;49.78;;;46.33;;
43819;SDS011;67762;52.476;6.046;2023-06-10T09:19:25;50.60;;;46.90;;
43819;SDS011;67762;52.476;6.046;2023-06-10T09:21:52;43.58;;;40.78;;
43819;SDS011;67762;52.476;6.046;2023-06-10T09:24:18;32.25;;;30.02;;
43819;SDS011;67762;52.476;6.046;2023-06-10T09:26:43;30.02;;;27.92;;
43819;SDS011;67762;52.476;6.046;2023-06-10T09:29:11;34.03;;;31.63;;
43819;SDS011;67762;52.476;6.046;2023-06-10T09:31:40;33.80;;;31.52;;
43819;SDS011;67762;52.476;6.046;2023-06-10T09:34:13;27.40;;;25.35;;
43819;SDS011;67762;52.476;6.046;2023-06-10T09:36:40;25.80;;;23.90;;
43819;SDS011;67762;52.476;6.046;2023-06-10T09:39:16;36.05;;;33.75;;
43819;SDS011;67762;52.476;6.046;2023-06-10T09:41:43;25.83;;;24.00;;
43819;SDS011;67762;52.476;6.046;2023-06-10T09:44:17;32.05;;;29.80;;
43819;SDS011;67762;52.476;6.046;2023-06-10T09:46:48;23.08;;;21.35;;
43819;SDS011;67762;52.476;6.046;2023-06-10T09:49:16;29.73;;;27.73;;
43819;SDS011;67762;52.476;6.046;2023-06-10T09:51:52;26.90;;;24.55;;
43819;SDS011;67762;52.476;6.046;2023-06-10T09:54:19;30.17;;;28.08;;
43819;SDS011;67762;52.476;6.046;2023-06-10T09:56:49;26.75;;;24.75;;
43819;SDS011;67762;52.476;6.046;2023-06-10T09:59:27;24.20;;;22.25;;
43819;SDS011;67762;52.476;6.046;2023-06-10T10:01:55;23.17;;;21.20;;
43819;SDS011;67762;52.476;6.046;2023-06-10T10:04:24;23.45;;;21.63;;
43819;SDS011;67762;52.476;6.046;2023-06-10T10:06:50;19.95;;;18.40;;
43819;SDS011;67762;52.476;6.046;2023-06-10T10:09:16;21.60;;;19.95;;
43819;SDS011;67762;52.476;6.046;2023-06-10T10:11:42;22.88;;;20.85;;
43819;SDS011;67762;52.476;6.046;2023-06-10T10:14:09;20.58;;;18.98;;
43819;SDS011;67762;52.476;6.046;2023-06-10T10:16:40;19.45;;;18.05;;
43819;SDS011;67762;52.476;6.046;2023-06-10T10:19:09;20.95;;;19.17;;
43819;SDS011;67762;52.476;6.046;2023-06-10T10:21:43;20.38;;;18.38;;
43819;SDS011;67762;52.476;6.046;2023-06-10T10:24:15;18.75;;;17.42;;
43819;SDS011;67762;52.476;6.046;2023-06-10T10:26:45;21.42;;;19.92;;
43819;SDS011;67762;52.476;6.046;2023-06-10T10:31:59;20.48;;;18.77;;
43819;SDS011;67762;52.476;6.046;2023-06-10T10:34:30;19.98;;;18.23;;
43819;SDS011;67762;52.476;6.046;2023-06-10T10:37:02;19.95;;;18.58;;
43819;SDS011;67762;52.476;6.046;2023-06-10T10:39:28;20.23;;;18.67;;
43819;SDS011;67762;52.476;6.046;2023-06-10T10:41:55;20.50;;;18.95;;
43819;SDS011;67762;52.476;6.046;2023-06-10T10:44:21;21.52;;;19.73;;
43819;SDS011;67762;52.476;6.046;2023-06-10T10:46:48;18.85;;;17.25;;
43819;SDS011;67762;52.476;6.046;2023-06-10T10:49:15;19.45;;;18.02;;
43819;SDS011;67762;52.476;6.046;2023-06-10T10:51:58;20.42;;;18.77;;
43819;SDS011;67762;52.476;6.046;2023-06-10T10:54:37;19.88;;;18.17;;
43819;SDS011;67762;52.476;6.046;2023-06-10T10:57:15;20.73;;;19.30;;
43819;SDS011;67762;52.476;6.046;2023-06-10T11:05:04;19.00;;;17.40;;
43819;SDS011;67762;52.476;6.046;2023-06-10T11:07:34;20.70;;;19.17;;
43819;SDS011;67762;52.476;6.046;2023-06-10T11:10:01;19.55;;;17.90;;
43819;SDS011;67762;52.476;6.046;2023-06-10T11:12:47;22.27;;;20.58;;
43819;SDS011;67762;52.476;6.046;2023-06-10T11:15:19;20.25;;;18.75;;
43819;SDS011;67762;52.476;6.046;2023-06-10T11:31:25;21.30;;;19.55;;
43819;SDS011;67762;52.476;6.046;2023-06-10T11:34:01;21.65;;;19.88;;
43819;SDS011;67762;52.476;6.046;2023-06-10T11:36:29;21.33;;;19.55;;
43819;SDS011;67762;52.476;6.046;2023-06-10T11:38:56;19.67;;;18.08;;
43819;SDS011;67762;52.476;6.046;2023-06-10T11:41:24;19.20;;;17.88;;
43819;SDS011;67762;52.476;6.046;2023-06-10T11:43:56;20.35;;;18.75;;
43819;SDS011;67762;52.476;6.046;2023-06-10T11:46:26;19.80;;;18.53;;
43819;SDS011;67762;52.476;6.046;2023-06-10T11:48:54;20.95;;;19.45;;
43819;SDS011;67762;52.476;6.046;2023-06-10T11:51:21;23.20;;;21.50;;
43819;SDS011;67762;52.476;6.046;2023-06-10T11:53:47;18.85;;;17.50;;
43819;SDS011;67762;52.476;6.046;2023-06-10T11:56:19;20.88;;;19.23;;
43819;SDS011;67762;52.476;6.046;2023-06-10T11:58:45;20.65;;;19.00;;
43819;SDS011;67762;52.476;6.046;2023-06-10T12:01:23;19.48;;;18.05;;
43819;SDS011;67762;52.476;6.046;2023-06-10T12:03:59;20.40;;;18.97;;
43819;SDS011;67762;52.476;6.046;2023-06-10T12:06:27;20.35;;;18.92;;
43819;SDS011;67762;52.476;6.046;2023-06-10T12:09:03;20.63;;;18.92;;
43819;SDS011;67762;52.476;6.046;2023-06-10T12:11:29;22.80;;;21.08;;
43819;SDS011;67762;52.476;6.046;2023-06-10T12:13:55;19.70;;;18.25;;
43819;SDS011;67762;52.476;6.046;2023-06-10T12:16:20;21.13;;;19.42;;
43819;SDS011;67762;52.476;6.046;2023-06-10T12:18:46;22.35;;;20.52;;
43819;SDS011;67762;52.476;6.046;2023-06-10T12:21:19;21.15;;;19.45;;
43819;SDS011;67762;52.476;6.046;2023-06-10T12:23:59;19.00;;;17.63;;
43819;SDS011;67762;52.476;6.046;2023-06-10T12:26:35;22.33;;;20.63;;
43819;SDS011;67762;52.476;6.046;2023-06-10T12:31:59;20.02;;;18.65;;
43819;SDS011;67762;52.476;6.046;2023-06-10T12:34:30;20.63;;;19.13;;
43819;SDS011;67762;52.476;6.046;2023-06-10T12:37:01;19.00;;;17.70;;
43819;SDS011;67762;52.476;6.046;2023-06-10T12:39:33;21.15;;;19.48;;
43819;SDS011;67762;52.476;6.046;2023-06-10T12:41:59;19.98;;;18.48;;
43819;SDS011;67762;52.476;6.046;2023-06-10T12:44:30;20.08;;;18.42;;
43819;SDS011;67762;52.476;6.046;2023-06-10T12:46:56;19.38;;;17.98;;
43819;SDS011;67762;52.476;6.046;2023-06-10T12:49:22;21.00;;;19.45;;
43819;SDS011;67762;52.476;6.046;2023-06-10T12:51:48;18.80;;;17.25;;
43819;SDS011;67762;52.476;6.046;2023-06-10T12:54:14;19.00;;;17.50;;
43819;SDS011;67762;52.476;6.046;2023-06-10T12:56:39;20.73;;;19.15;;
43819;SDS011;67762;52.476;6.046;2023-06-10T12:59:05;19.38;;;17.90;;
43819;SDS011;67762;52.476;6.046;2023-06-10T13:01:31;17.75;;;16.35;;
43819;SDS011;67762;52.476;6.046;2023-06-10T13:03:58;20.27;;;18.58;;
43819;SDS011;67762;52.476;6.046;2023-06-10T13:06:23;21.25;;;19.63;;
43819;SDS011;67762;52.476;6.046;2023-06-10T13:08:49;19.92;;;18.27;;
43819;SDS011;67762;52.476;6.046;2023-06-10T13:11:16;19.38;;;17.98;;
43819;SDS011;67762;52.476;6.046;2023-06-10T13:13:41;20.35;;;18.60;;
43819;SDS011;67762;52.476;6.046;2023-06-10T13:16:07;18.27;;;16.98;;
43819;SDS011;67762;52.476;6.046;2023-06-10T13:18:33;20.00;;;18.63;;
43819;SDS011;67762;52.476;6.046;2023-06-10T13:21:05;17.95;;;16.67;;
43819;SDS011;67762;52.476;6.046;2023-06-10T13:23:31;18.63;;;17.33;;
43819;SDS011;67762;52.476;6.046;2023-06-10T13:25:57;17.75;;;16.55;;
43819;SDS011;67762;52.476;6.046;2023-06-10T13:28:23;18.67;;;17.20;;
43819;SDS011;67762;52.476;6.046;2023-06-10T13:30:48;19.38;;;18.00;;
43819;SDS011;67762;52.476;6.046;2023-06-10T13:33:14;18.88;;;17.50;;
43819;SDS011;67762;52.476;6.046;2023-06-10T13:35:40;19.30;;;17.80;;
43819;SDS011;67762;52.476;6.046;2023-06-10T13:38:06;18.95;;;17.48;;
43819;SDS011;67762;52.476;6.046;2023-06-10T13:40:32;20.80;;;19.30;;
43819;SDS011;67762;52.476;6.046;2023-06-10T13:42:58;19.00;;;17.58;;
43819;SDS011;67762;52.476;6.046;2023-06-10T13:45:23;18.23;;;16.70;;
43819;SDS011;67762;52.476;6.046;2023-06-10T13:47:50;18.95;;;17.50;;
43819;SDS011;67762;52.476;6.046;2023-06-10T13:50:16;19.58;;;18.05;;
43819;SDS011;67762;52.476;6.046;2023-06-10T13:52:42;19.58;;;18.17;;
43819;SDS011;67762;52.476;6.046;2023-06-10T13:55:08;16.90;;;15.80;;
43819;SDS011;67762;52.476;6.046;2023-06-10T13:57:34;20.20;;;18.67;;
43819;SDS011;67762;52.476;6.046;2023-06-10T14:00:00;18.30;;;17.10;;
43819;SDS011;67762;52.476;6.046;2023-06-10T14:02:25;18.42;;;17.13;;
43819;SDS011;67762;52.476;6.046;2023-06-10T14:04:51;17.98;;;16.67;;
43819;SDS011;67762;52.476;6.046;2023-06-10T14:07:17;19.33;;;17.92;;
43819;SDS011;67762;52.476;6.046;2023-06-10T14:09:42;19.05;;;17.55;;
43819;SDS011;67762;52.476;6.046;2023-06-10T14:12:09;16.90;;;15.80;;
43819;SDS011;67762;52.476;6.046;2023-06-10T14:14:35;18.40;;;17.00;;
43819;SDS011;67762;52.476;6.046;2023-06-10T14:17:01;17.45;;;16.05;;
43819;SDS011;67762;52.476;6.046;2023-06-10T14:19:28;17.77;;;16.55;;
43819;SDS011;67762;52.476;6.046;2023-06-10T14:21:54;18.60;;;17.17;;
43819;SDS011;67762;52.476;6.046;2023-06-10T14:24:20;18.45;;;17.15;;
43819;SDS011;67762;52.476;6.046;2023-06-10T14:26:46;18.40;;;17.02;;
43819;SDS011;67762;52.476;6.046;2023-06-10T14:29:12;17.50;;;16.30;;
43819;SDS011;67762;52.476;6.046;2023-06-10T14:31:39;18.95;;;17.65;;
43819;SDS011;67762;52.476;6.046;2023-06-10T14:34:05;16.98;;;15.48;;
43819;SDS011;67762;52.476;6.046;2023-06-10T14:36:33;18.15;;;16.98;;
43819;SDS011;67762;52.476;6.046;2023-06-10T14:38:59;17.77;;;16.30;;
43819;SDS011;67762;52.476;6.046;2023-06-10T14:41:24;19.25;;;17.33;;
43819;SDS011;67762;52.476;6.046;2023-06-10T14:43:51;17.63;;;16.00;;
43819;SDS011;67762;52.476;6.046;2023-06-10T14:46:17;18.80;;;17.50;;